Time;durP1;ratioP1;P1;durP2;ratioP2;P2;SDS_P1;SDS_P2;PMS_P1;PMS_P2;Temp;Humidity;BMP_temperature;BMP_pressure;BME280_temperature;BME280_humidity;BME280_pressure;Samples;Min_cycle;Max_cycle;Signal;HPM_P1;HPM_P2
2023/03/21 00:01:03;;;;;;;11.15;1.98;;;;;;;;;;4967136;28;20054;-66
2023/03/21 00:03:34;;;;;;;7.82;1.75;;;;;;;;;;4951423;29;20058;-66
2023/03/21 00:06:06;;;;;;;7.82;1.60;;;;;;;;;;4947825;29;20055;-66
2023/03/21 00:08:38;;;;;;;4.53;2.22;;;;;;;;;;4947868;29;20671;-66
2023/03/21 00:11:11;;;;;;;6.13;1.80;;;;;;;;;;4900512;29;20594;-66
2023/03/21 00:13:42;;;;;;;6.97;1.95;;;;;;;;;;4924314;29;20055;-66
2023/03/21 00:16:15;;;;;;;4.07;1.95;;;;;;;;;;4951184;29;20058;-66
2023/03/21 00:18:51;;;;;;;4.70;1.92;;;;;;;;;;4904740;29;20065;-66
2023/03/21 00:21:27;;;;;;;6.85;2.08;;;;;;;;;;4954514;28;20047;-66
2023/03/21 00:24:17;;;;;;;5.53;2.20;;;;;;;;;;4989522;28;20198;-66
2023/03/21 00:26:48;;;;;;;4.82;2.10;;;;;;;;;;4986372;28;20059;-66
2023/03/21 00:29:19;;;;;;;5.68;1.63;;;;;;;;;;4970082;28;20062;-67
2023/03/21 00:31:49;;;;;;;4.38;1.77;;;;;;;;;;4950593;29;20542;-66
2023/03/21 00:34:19;;;;;;;5.15;1.98;;;;;;;;;;4935482;29;20059;-66
2023/03/21 00:37:15;;;;;;;10.35;2.03;;;;;;;;;;4931676;29;20467;-66
2023/03/21 00:39:50;;;;;;;9.43;2.17;;;;;;;;;;4931459;29;20055;-66
2023/03/21 00:42:20;;;;;;;5.78;2.13;;;;;;;;;;4915548;29;20428;-66
2023/03/21 00:44:50;;;;;;;7.65;2.00;;;;;;;;;;4912159;29;20063;-66
2023/03/21 00:47:20;;;;;;;4.03;1.83;;;;;;;;;;4912568;29;20052;-66
2023/03/21 00:49:54;;;;;;;9.45;2.28;;;;;;;;;;4931395;29;20052;-68
2023/03/21 00:52:24;;;;;;;9.75;2.08;;;;;;;;;;4915667;29;20052;-66
2023/03/21 00:55:12;;;;;;;12.07;2.33;;;;;;;;;;4875269;29;20061;-66
2023/03/21 00:57:44;;;;;;;10.77;2.10;;;;;;;;;;4877260;29;20501;-67
2023/03/21 01:00:25;;;;;;;5.88;2.00;;;;;;;;;;4860195;29;20061;-66
2023/03/21 01:02:57;;;;;;;5.95;2.05;;;;;;;;;;4860063;29;20057;-66
2023/03/21 01:06:05;;;;;;;6.60;2.15;;;;;;;;;;4878728;29;20225;-66
2023/03/21 01:08:38;;;;;;;6.82;2.33;;;;;;;;;;4885603;29;20060;-66
2023/03/21 01:11:24;;;;;;;9.75;2.33;;;;;;;;;;4934902;29;20051;-66
2023/03/21 01:13:55;;;;;;;9.20;2.28;;;;;;;;;;4903318;29;20167;-67
2023/03/21 01:16:43;;;;;;;9.50;2.80;;;;;;;;;;4900895;29;20048;-66
2023/03/21 01:19:16;;;;;;;7.32;2.47;;;;;;;;;;4916009;29;20060;-67
2023/03/21 01:21:55;;;;;;;8.65;2.53;;;;;;;;;;4915852;29;20096;-67
2023/03/21 01:24:25;;;;;;;7.90;2.25;;;;;;;;;;4920803;29;20064;-67
2023/03/21 01:26:55;;;;;;;4.88;2.30;;;;;;;;;;4944282;28;20058;-66
2023/03/21 01:29:26;;;;;;;5.43;2.85;;;;;;;;;;4919080;29;20121;-67
2023/03/21 01:31:58;;;;;;;10.77;2.25;;;;;;;;;;4934329;29;20051;-67
2023/03/21 01:34:28;;;;;;;5.75;2.28;;;;;;;;;;4915563;29;20079;-67
2023/03/21 01:36:59;;;;;;;5.95;2.45;;;;;;;;;;4911779;29;20056;-67
2023/03/21 01:39:33;;;;;;;15.00;2.60;;;;;;;;;;4934081;29;20772;-67
2023/03/21 01:42:03;;;;;;;11.15;2.50;;;;;;;;;;4934367;29;20500;-67
2023/03/21 01:45:02;;;;;;;7.78;2.65;;;;;;;;;;4899392;29;20077;-67
2023/03/21 01:47:40;;;;;;;10.77;2.80;;;;;;;;;;4914999;29;20059;-67
2023/03/21 01:50:35;;;;;;;5.55;2.13;;;;;;;;;;4896101;29;20063;-67
2023/03/21 01:53:28;;;;;;;9.13;2.17;;;;;;;;;;4914984;29;20044;-67
2023/03/21 01:56:27;;;;;;;4.35;1.83;;;;;;;;;;4930123;29;20048;-68
2023/03/21 01:59:13;;;;;;;9.00;2.20;;;;;;;;;;4949071;29;20055;-67
2023/03/21 02:02:06;;;;;;;7.95;2.35;;;;;;;;;;4962501;28;20406;-66
2023/03/21 02:04:49;;;;;;;7.63;2.33;;;;;;;;;;4991796;28;20050;-67
2023/03/21 02:07:33;;;;;;;5.32;1.98;;;;;;;;;;4974858;28;20046;-66
2023/03/21 02:10:08;;;;;;;5.38;2.13;;;;;;;;;;4991866;28;20130;-67
2023/03/21 02:12:42;;;;;;;8.57;2.38;;;;;;;;;;4923152;29;20044;-67
2023/03/21 02:15:13;;;;;;;8.27;2.33;;;;;;;;;;4943895;28;20063;-66
2023/03/21 02:18:21;;;;;;;5.80;2.03;;;;;;;;;;4925528;28;20052;-67
2023/03/21 02:21:20;;;;;;;7.40;2.25;;;;;;;;;;4949960;29;20101;-67
2023/03/21 02:24:10;;;;;;;6.60;2.50;;;;;;;;;;4933135;29;20060;-67
2023/03/21 02:26:46;;;;;;;10.50;2.80;;;;;;;;;;4914325;29;20056;-66
2023/03/21 02:29:51;;;;;;;8.18;2.20;;;;;;;;;;4914324;29;20138;-66
2023/03/21 02:32:48;;;;;;;10.00;2.40;;;;;;;;;;4913983;29;20102;-66
2023/03/21 02:35:36;;;;;;;6.20;2.38;;;;;;;;;;4914114;29;20059;-67
2023/03/21 02:38:29;;;;;;;7.53;3.13;;;;;;;;;;4929337;29;20059;-66
2023/03/21 02:41:10;;;;;;;5.47;2.38;;;;;;;;;;4913918;29;20052;-66
2023/03/21 02:44:30;;;;;;;5.78;2.30;;;;;;;;;;4924815;29;20060;-67
2023/03/21 02:47:21;;;;;;;6.63;2.25;;;;;;;;;;4879357;29;20049;-68
2023/03/21 02:50:04;;;;;;;7.43;2.50;;;;;;;;;;4875381;29;20053;-68
2023/03/21 02:52:36;;;;;;;5.80;2.20;;;;;;;;;;4863334;29;20530;-67
2023/03/21 02:55:22;;;;;;;6.45;2.33;;;;;;;;;;4823325;29;20054;-67
2023/03/21 02:58:02;;;;;;;8.45;2.55;;;;;;;;;;4817051;29;20066;-66
2023/03/21 03:00:49;;;;;;;6.50;2.55;;;;;;;;;;4821205;29;20065;-67
2023/03/21 03:03:33;;;;;;;6.25;2.60;;;;;;;;;;4857711;29;20049;-66
2023/03/21 03:06:25;;;;;;;9.45;2.75;;;;;;;;;;4890982;29;20045;-66
2023/03/21 03:09:33;;;;;;;7.85;2.70;;;;;;;;;;4863255;29;20570;-67
2023/03/21 03:12:35;;;;;;;9.20;3.10;;;;;;;;;;4875954;29;20056;-67
2023/03/21 03:15:40;;;;;;;5.25;2.90;;;;;;;;;;4904583;29;20064;-67
2023/03/21 03:18:28;;;;;;;7.90;2.58;;;;;;;;;;4907735;29;20192;-67
2023/03/21 03:21:46;;;;;;;11.63;2.75;;;;;;;;;;4915339;29;20053;-67
2023/03/21 03:24:21;;;;;;;5.85;2.80;;;;;;;;;;4928149;29;20051;-67
2023/03/21 03:27:14;;;;;;;7.82;2.67;;;;;;;;;;4868979;29;20850;-67
2023/03/21 03:29:49;;;;;;;5.60;2.42;;;;;;;;;;4867459;29;20053;-66
2023/03/21 03:32:35;;;;;;;7.85;2.67;;;;;;;;;;4882324;29;20045;-68
2023/03/21 03:35:07;;;;;;;9.68;2.45;;;;;;;;;;4944645;29;20047;-67
2023/03/21 03:37:39;;;;;;;6.80;2.70;;;;;;;;;;4927285;29;20122;-67
2023/03/21 03:40:24;;;;;;;10.20;2.55;;;;;;;;;;4951081;29;20630;-67
2023/03/21 03:43:14;;;;;;;16.25;2.50;;;;;;;;;;4945479;28;20056;-67
2023/03/21 03:45:53;;;;;;;6.63;2.65;;;;;;;;;;4932212;29;20067;-67
2023/03/21 03:48:51;;;;;;;7.90;2.90;;;;;;;;;;4953083;28;20051;-69
2023/03/21 03:51:35;;;;;;;6.68;3.40;;;;;;;;;;4913042;29;20083;-67
2023/03/21 03:54:41;;;;;;;6.22;2.70;;;;;;;;;;4889650;29;20052;-67
2023/03/21 03:57:12;;;;;;;5.35;2.25;;;;;;;;;;4893671;29;20057;-67
2023/03/21 03:59:44;;;;;;;6.65;2.42;;;;;;;;;;4874222;29;20053;-67
2023/03/21 04:02:24;;;;;;;7.30;2.17;;;;;;;;;;4838299;29;20061;-67
2023/03/21 04:04:56;;;;;;;7.85;2.42;;;;;;;;;;4856717;29;20045;-67
2023/03/21 04:07:26;;;;;;;7.47;2.88;;;;;;;;;;4893988;29;20421;-67
2023/03/21 04:09:59;;;;;;;5.00;2.13;;;;;;;;;;4864283;29;20054;-66
2023/03/21 04:12:33;;;;;;;9.68;2.45;;;;;;;;;;4856647;29;20058;-66
2023/03/21 04:15:18;;;;;;;6.47;2.20;;;;;;;;;;4816928;29;20063;-67
2023/03/21 04:17:55;;;;;;;4.10;2.33;;;;;;;;;;4856555;29;20057;-69
2023/03/21 04:20:25;;;;;;;7.72;2.53;;;;;;;;;;4878343;29;20422;-68
2023/03/21 04:23:13;;;;;;;7.80;2.20;;;;;;;;;;4899254;29;20057;-67
2023/03/21 04:25:45;;;;;;;6.32;2.42;;;;;;;;;;4875260;29;20057;-67
2023/03/21 04:28:47;;;;;;;6.18;2.45;;;;;;;;;;4851240;29;20057;-68
2023/03/21 04:31:43;;;;;;;5.97;2.22;;;;;;;;;;4877169;29;20410;-69
2023/03/21 04:34:13;;;;;;;6.28;2.13;;;;;;;;;;4885882;29;20458;-67
2023/03/21 04:36:52;;;;;;;5.60;2.58;;;;;;;;;;4874763;29;20639;-67
2023/03/21 04:39:23;;;;;;;9.68;2.53;;;;;;;;;;4882373;29;20124;-68
2023/03/21 04:41:54;;;;;;;5.28;2.08;;;;;;;;;;4874855;29;20056;-70
2023/03/21 04:44:24;;;;;;;6.10;2.35;;;;;;;;;;4897430;29;20413;-68
2023/03/21 04:46:53;;;;;;;6.13;2.53;;;;;;;;;;4894071;29;20056;-68
2023/03/21 04:49:23;;;;;;;7.60;2.35;;;;;;;;;;4863070;29;20510;-68
2023/03/21 04:51:53;;;;;;;8.20;2.00;;;;;;;;;;4878532;29;20064;-68
2023/03/21 04:54:23;;;;;;;4.47;2.22;;;;;;;;;;4869736;29;20532;-68
2023/03/21 04:56:54;;;;;;;9.50;2.90;;;;;;;;;;4896949;29;20056;-68
2023/03/21 04:59:27;;;;;;;7.22;2.88;;;;;;;;;;4915892;29;20405;-68
2023/03/21 05:01:57;;;;;;;6.43;2.95;;;;;;;;;;4910533;29;20456;-68
2023/03/21 05:04:31;;;;;;;5.82;2.88;;;;;;;;;;4877311;29;20057;-68
2023/03/21 05:07:01;;;;;;;5.95;2.50;;;;;;;;;;4880422;29;20064;-69
2023/03/21 05:09:31;;;;;;;6.97;2.88;;;;;;;;;;4912609;29;20060;-68
2023/03/21 05:12:01;;;;;;;10.32;2.30;;;;;;;;;;4887029;29;20056;-68
2023/03/21 05:14:32;;;;;;;8.10;1.98;;;;;;;;;;4930721;29;20055;-68
2023/03/21 05:17:04;;;;;;;7.30;3.15;;;;;;;;;;4897346;29;20720;-68
2023/03/21 05:19:34;;;;;;;6.00;2.70;;;;;;;;;;4931185;29;20594;-68
2023/03/21 05:22:10;;;;;;;4.07;1.90;;;;;;;;;;4944446;29;20055;-68
2023/03/21 05:24:41;;;;;;;5.75;2.35;;;;;;;;;;4896497;29;20553;-68
2023/03/21 05:27:33;;;;;;;6.10;2.40;;;;;;;;;;4878097;29;20052;-68
2023/03/21 05:30:16;;;;;;;6.28;2.45;;;;;;;;;;4845507;29;20525;-68
2023/03/21 05:32:49;;;;;;;5.20;2.17;;;;;;;;;;4892927;29;20076;-68
2023/03/21 05:35:20;;;;;;;7.20;2.45;;;;;;;;;;4889866;29;20056;-68
2023/03/21 05:37:51;;;;;;;5.30;2.33;;;;;;;;;;4896360;29;20067;-69
2023/03/21 05:40:24;;;;;;;6.07;2.35;;;;;;;;;;4866115;29;20064;-69
2023/03/21 05:42:58;;;;;;;9.20;2.25;;;;;;;;;;4910518;29;20048;-68
2023/03/21 05:45:27;;;;;;;5.43;2.53;;;;;;;;;;4896323;29;20432;-68
2023/03/21 05:47:57;;;;;;;7.05;2.25;;;;;;;;;;4880438;29;20076;-68
2023/03/21 05:50:32;;;;;;;6.32;2.42;;;;;;;;;;4877491;29;20064;-69
2023/03/21 05:53:09;;;;;;;5.50;2.38;;;;;;;;;;4828832;29;20058;-68
2023/03/21 05:55:39;;;;;;;5.60;1.95;;;;;;;;;;4836723;29;20058;-68
2023/03/21 05:58:18;;;;;;;5.20;1.92;;;;;;;;;;4841325;29;20061;-68
2023/03/21 06:00:50;;;;;;;6.43;2.45;;;;;;;;;;4863019;29;20054;-68
2023/03/21 06:03:27;;;;;;;7.40;2.55;;;;;;;;;;4881383;29;20452;-69
2023/03/21 06:06:16;;;;;;;5.35;2.53;;;;;;;;;;4914595;29;20055;-68
2023/03/21 06:08:54;;;;;;;;;;;;;;;;;;4934143;29;20054;-68
2023/03/21 06:11:36;;;;;;;8.15;2.60;;;;;;;;;;4906729;29;20032;-68
2023/03/21 06:14:26;;;;;;;5.00;2.15;;;;;;;;;;4895013;29;20044;-68
2023/03/21 06:17:16;;;;;;;6.30;2.42;;;;;;;;;;4877183;29;20064;-68
2023/03/21 06:19:51;;;;;;;8.00;2.70;;;;;;;;;;4889527;29;20057;-68
2023/03/21 06:22:27;;;;;;;5.45;2.33;;;;;;;;;;4873141;29;20058;-68
2023/03/21 06:24:56;;;;;;;8.60;2.45;;;;;;;;;;4872904;29;20056;-69
2023/03/21 06:27:27;;;;;;;5.72;2.40;;;;;;;;;;4839411;29;20068;-68
2023/03/21 06:29:57;;;;;;;8.63;2.35;;;;;;;;;;4818964;29;20062;-68
2023/03/21 06:32:31;;;;;;;5.20;2.13;;;;;;;;;;4803353;29;20054;-68
2023/03/21 06:35:09;;;;;;;10.45;2.78;;;;;;;;;;4814376;29;20047;-68
2023/03/21 06:37:38;;;;;;;6.47;2.47;;;;;;;;;;4798380;29;20186;-69
2023/03/21 06:40:10;;;;;;;6.50;2.42;;;;;;;;;;4819612;29;20063;-68
2023/03/21 06:42:40;;;;;;;5.82;2.63;;;;;;;;;;4839793;29;20054;-68
2023/03/21 06:45:11;;;;;;;12.13;2.63;;;;;;;;;;4857727;29;20541;-68
2023/03/21 06:47:42;;;;;;;8.30;2.60;;;;;;;;;;4876528;29;20068;-69
2023/03/21 06:50:26;;;;;;;7.20;2.50;;;;;;;;;;4843940;29;20056;-68
2023/03/21 06:52:58;;;;;;;7.80;2.83;;;;;;;;;;4854468;29;20426;-69
2023/03/21 06:55:34;;;;;;;7.55;2.42;;;;;;;;;;4867003;29;20057;-69
2023/03/21 06:58:05;;;;;;;6.15;2.90;;;;;;;;;;4857415;29;20057;-69
2023/03/21 07:00:35;;;;;;;4.53;1.95;;;;;;;;;;4854377;29;20053;-68
2023/03/21 07:03:05;;;;;;;7.97;2.40;;;;;;;;;;4876352;29;20553;-69
2023/03/21 07:05:36;;;;;;;5.40;2.90;;;;;;;;;;4913537;29;20174;-68
2023/03/21 07:08:09;;;;;;;5.93;2.15;;;;;;;;;;4913462;29;20047;-68
2023/03/21 07:10:41;;;;;;;8.57;2.40;;;;;;;;;;4919553;29;20048;-68
2023/03/21 07:13:15;;;;;;;8.20;2.30;;;;;;;;;;4907325;29;20048;-67
2023/03/21 07:15:53;;;;;;;5.88;2.65;;;;;;;;;;4917359;29;20049;-69
2023/03/21 07:18:24;;;;;;;4.97;2.05;;;;;;;;;;4872759;29;20060;-68
2023/03/21 07:20:54;;;;;;;4.45;2.33;;;;;;;;;;4882605;29;20525;-68
2023/03/21 07:23:27;;;;;;;6.57;2.47;;;;;;;;;;4854084;29;20053;-69
2023/03/21 07:25:57;;;;;;;5.50;2.67;;;;;;;;;;4920416;29;20137;-68
2023/03/21 07:28:27;;;;;;;7.03;2.10;;;;;;;;;;4913306;29;20048;-68
2023/03/21 07:31:00;;;;;;;5.97;2.17;;;;;;;;;;4913442;29;20512;-68
2023/03/21 07:33:31;;;;;;;4.35;2.40;;;;;;;;;;4902290;29;20532;-68
2023/03/21 07:36:02;;;;;;;7.50;2.40;;;;;;;;;;4890419;29;20056;-68
2023/03/21 07:38:32;;;;;;;5.45;2.33;;;;;;;;;;4894295;29;20048;-68
2023/03/21 07:41:01;;;;;;;4.05;1.95;;;;;;;;;;4913108;29;20059;-70
2023/03/21 07:43:34;;;;;;;7.70;2.67;;;;;;;;;;4905641;29;20076;-68
2023/03/21 07:46:10;;;;;;;7.47;2.40;;;;;;;;;;4894048;29;20057;-68
2023/03/21 07:48:40;;;;;;;12.30;2.78;;;;;;;;;;4882937;29;20441;-68
2023/03/21 07:51:09;;;;;;;6.68;2.33;;;;;;;;;;4919993;29;20455;-69
2023/03/21 07:53:40;;;;;;;7.70;2.70;;;;;;;;;;4878573;29;20064;-69
2023/03/21 07:56:11;;;;;;;9.20;2.80;;;;;;;;;;4892041;29;20521;-68
2023/03/21 07:58:41;;;;;;;9.13;3.38;;;;;;;;;;4875322;29;20064;-68
2023/03/21 08:01:11;;;;;;;9.10;3.20;;;;;;;;;;4875974;29;20065;-68
2023/03/21 08:03:42;;;;;;;5.15;2.70;;;;;;;;;;4891196;29;20052;-68
2023/03/21 08:06:12;;;;;;;6.05;2.63;;;;;;;;;;4880555;29;20098;-70
2023/03/21 08:08:41;;;;;;;5.20;2.35;;;;;;;;;;4841753;29;20061;-68
2023/03/21 08:11:13;;;;;;;6.35;2.67;;;;;;;;;;4857185;29;20065;-68
2023/03/21 08:13:43;;;;;;;5.50;2.63;;;;;;;;;;4913470;29;20059;-68
2023/03/21 08:16:12;;;;;;;4.22;2.40;;;;;;;;;;4923183;29;20060;-68
2023/03/21 08:18:42;;;;;;;6.25;2.13;;;;;;;;;;4939017;28;20065;-68
2023/03/21 08:21:12;;;;;;;5.43;2.75;;;;;;;;;;5009470;28;20405;-68
2023/03/21 08:23:42;;;;;;;5.60;2.10;;;;;;;;;;5029397;28;20061;-68
2023/03/21 08:26:16;;;;;;;5.80;2.35;;;;;;;;;;5029361;28;20412;-68
2023/03/21 08:28:47;;;;;;;4.47;2.15;;;;;;;;;;4989943;28;20108;-68
2023/03/21 08:31:17;;;;;;;7.22;2.38;;;;;;;;;;5015884;28;20068;-68
2023/03/21 08:33:49;;;;;;;8.55;1.92;;;;;;;;;;4957353;28;20069;-69
2023/03/21 08:36:22;;;;;;;6.20;2.33;;;;;;;;;;4973553;28;20081;-68
2023/03/21 08:38:53;;;;;;;5.78;2.20;;;;;;;;;;4990012;28;20077;-69
2023/03/21 08:41:24;;;;;;;4.75;2.50;;;;;;;;;;4989650;28;20061;-68
2023/03/21 08:43:54;;;;;;;11.32;2.75;;;;;;;;;;4989840;28;20051;-67
2023/03/21 08:46:25;;;;;;;4.28;2.20;;;;;;;;;;4989654;28;20070;-68
2023/03/21 08:48:55;;;;;;;6.05;2.53;;;;;;;;;;4989772;28;20057;-68
2023/03/21 08:51:26;;;;;;;6.38;2.80;;;;;;;;;;4957425;28;20576;-69
2023/03/21 08:53:55;;;;;;;8.63;2.80;;;;;;;;;;4957512;28;20807;-68
2023/03/21 08:56:25;;;;;;;8.02;2.95;;;;;;;;;;4989513;28;20046;-68
2023/03/21 08:58:55;;;;;;;6.95;2.65;;;;;;;;;;5005941;28;20058;-69
2023/03/21 09:01:25;;;;;;;9.43;3.30;;;;;;;;;;5009165;28;20049;-68
2023/03/21 09:03:55;;;;;;;12.65;2.85;;;;;;;;;;4960890;28;20054;-68
2023/03/21 09:06:26;;;;;;;9.55;2.60;;;;;;;;;;5009221;28;20497;-68
2023/03/21 09:08:56;;;;;;;6.38;2.90;;;;;;;;;;5009279;28;20549;-69
2023/03/21 09:11:25;;;;;;;7.22;2.85;;;;;;;;;;5030138;28;20072;-68
2023/03/21 09:13:55;;;;;;;6.47;2.72;;;;;;;;;;5051234;28;20488;-69
2023/03/21 09:16:25;;;;;;;8.70;2.65;;;;;;;;;;5028492;28;20054;-68
2023/03/21 09:18:57;;;;;;;7.15;2.92;;;;;;;;;;5031412;28;20057;-68
2023/03/21 09:21:28;;;;;;;6.93;2.95;;;;;;;;;;4983234;28;20061;-68
2023/03/21 09:23:58;;;;;;;4.95;2.55;;;;;;;;;;4999420;28;20050;-69
2023/03/21 09:26:29;;;;;;;9.63;2.72;;;;;;;;;;5032226;28;20052;-68
2023/03/21 09:28:59;;;;;;;7.22;2.33;;;;;;;;;;5032072;28;20056;-68
2023/03/21 09:31:29;;;;;;;8.43;2.95;;;;;;;;;;5032261;28;20057;-68
2023/03/21 09:33:59;;;;;;;7.35;2.42;;;;;;;;;;4999508;28;20061;-68
2023/03/21 09:36:31;;;;;;;10.50;2.20;;;;;;;;;;4983061;28;20084;-68
2023/03/21 09:39:02;;;;;;;5.43;2.33;;;;;;;;;;4999000;28;20067;-67
2023/03/21 09:41:46;;;;;;;8.95;2.35;;;;;;;;;;4966446;28;20042;-68
2023/03/21 09:44:51;;;;;;;5.53;2.00;;;;;;;;;;5031962;28;20054;-68
2023/03/21 09:47:31;;;;;;;7.82;2.65;;;;;;;;;;4973109;28;20061;-69
2023/03/21 09:50:15;;;;;;;5.97;2.40;;;;;;;;;;4941075;28;20054;-68
2023/03/21 09:53:06;;;;;;;6.13;2.70;;;;;;;;;;4934140;29;20055;-67
2023/03/21 09:55:40;;;;;;;7.75;2.60;;;;;;;;;;4953584;29;20574;-67
2023/03/21 09:58:27;;;;;;;8.88;2.65;;;;;;;;;;4905644;29;20070;-67
2023/03/21 10:01:09;;;;;;;8.20;2.88;;;;;;;;;;4953541;29;20051;-68
2023/03/21 10:03:40;;;;;;;5.82;2.42;;;;;;;;;;4943270;28;20047;-67
2023/03/21 10:06:14;;;;;;;5.63;2.28;;;;;;;;;;4972810;28;20507;-68
2023/03/21 10:08:46;;;;;;;3.78;1.92;;;;;;;;;;4972777;28;20043;-67
2023/03/21 10:11:30;;;;;;;8.10;2.10;;;;;;;;;;4972722;28;20066;-67
2023/03/21 10:14:11;;;;;;;6.75;2.20;;;;;;;;;;4972706;28;20046;-67
2023/03/21 10:16:48;;;;;;;7.00;2.60;;;;;;;;;;4956791;28;20059;-67
2023/03/21 10:19:19;;;;;;;6.72;2.78;;;;;;;;;;4972491;28;20067;-68
2023/03/21 10:21:51;;;;;;;10.57;3.90;;;;;;;;;;4972745;28;20054;-67
2023/03/21 10:24:33;;;;;;;13.55;4.03;;;;;;;;;;4952206;28;20046;-68
2023/03/21 10:27:04;;;;;;;17.33;4.53;;;;;;;;;;5011219;28;20070;-67
2023/03/21 10:29:43;;;;;;;12.95;3.85;;;;;;;;;;4958538;28;20062;-68
2023/03/21 10:32:16;;;;;;;9.45;3.33;;;;;;;;;;4991904;28;20427;-67
2023/03/21 10:34:54;;;;;;;7.28;3.05;;;;;;;;;;4972038;28;20062;-67
2023/03/21 10:37:31;;;;;;;11.38;3.03;;;;;;;;;;4937329;28;20051;-67
2023/03/21 10:40:01;;;;;;;8.25;2.50;;;;;;;;;;4952965;28;20106;-67
2023/03/21 10:42:35;;;;;;;9.60;2.40;;;;;;;;;;4952825;28;20063;-66
2023/03/21 10:45:15;;;;;;;8.50;2.25;;;;;;;;;;4952962;28;20050;-66
2023/03/21 10:47:48;;;;;;;3.63;2.10;;;;;;;;;;4952500;29;20058;-68
2023/03/21 10:50:24;;;;;;;5.85;2.30;;;;;;;;;;4936605;29;20055;-67
2023/03/21 10:52:59;;;;;;;10.10;2.40;;;;;;;;;;4952612;29;20062;-67
2023/03/21 10:55:33;;;;;;;4.50;2.28;;;;;;;;;;4952579;29;20066;-67
2023/03/21 10:58:09;;;;;;;14.63;2.70;;;;;;;;;;4913926;29;20048;-67
2023/03/21 11:00:43;;;;;;;5.15;2.50;;;;;;;;;;4914042;29;20059;-68
2023/03/21 11:03:28;;;;;;;9.30;2.70;;;;;;;;;;4900425;29;20527;-68
2023/03/21 11:06:07;;;;;;;7.13;2.38;;;;;;;;;;4933236;29;20059;-68
2023/03/21 11:08:54;;;;;;;4.57;2.30;;;;;;;;;;4952301;29;20531;-67
2023/03/21 11:11:38;;;;;;;6.60;2.58;;;;;;;;;;4952171;29;20051;-67
2023/03/21 11:14:25;;;;;;;7.18;2.90;;;;;;;;;;4953815;28;20070;-67
2023/03/21 11:16:55;;;;;;;5.78;2.22;;;;;;;;;;4971532;28;20498;-67
2023/03/21 11:19:32;;;;;;;9.55;2.67;;;;;;;;;;4978335;28;20498;-66
2023/03/21 11:22:07;;;;;;;5.93;2.45;;;;;;;;;;4974924;28;20734;-67
2023/03/21 11:24:37;;;;;;;8.60;2.75;;;;;;;;;;4990911;28;20058;-67
2023/03/21 11:27:07;;;;;;;4.72;2.28;;;;;;;;;;4990750;28;20061;-66
2023/03/21 11:29:44;;;;;;;6.57;2.58;;;;;;;;;;5020068;28;20053;-66
2023/03/21 11:32:26;;;;;;;6.07;2.55;;;;;;;;;;5049996;28;20501;-66
2023/03/21 11:35:17;;;;;;;6.95;2.60;;;;;;;;;;5050086;28;20053;-66
2023/03/21 11:37:52;;;;;;;5.18;2.55;;;;;;;;;;5029606;28;20057;-66
2023/03/21 11:40:25;;;;;;;11.82;2.60;;;;;;;;;;5029202;28;20053;-66
2023/03/21 11:43:00;;;;;;;8.52;2.65;;;;;;;;;;5029704;28;20061;-66
2023/03/21 11:45:34;;;;;;;5.85;2.60;;;;;;;;;;5029717;28;20501;-67
2023/03/21 11:48:12;;;;;;;10.82;3.22;;;;;;;;;;5029869;28;20065;-67
2023/03/21 11:50:47;;;;;;;8.52;2.92;;;;;;;;;;4980619;28;20064;-67
2023/03/21 11:53:20;;;;;;;7.03;3.08;;;;;;;;;;4996660;28;20062;-66
2023/03/21 11:56:28;;;;;;;12.10;3.25;;;;;;;;;;5013751;28;20580;-67
2023/03/21 11:59:32;;;;;;;9.57;3.28;;;;;;;;;;5046261;28;20052;-66
2023/03/21 12:02:22;;;;;;;9.73;3.28;;;;;;;;;;4989579;28;20062;-66
2023/03/21 12:05:02;;;;;;;24.08;4.05;;;;;;;;;;4990151;28;20054;-65
2023/03/21 12:07:35;;;;;;;12.73;3.20;;;;;;;;;;4965261;28;20416;-66
2023/03/21 12:10:37;;;;;;;7.47;3.10;;;;;;;;;;4969376;28;20503;-66
2023/03/21 12:13:25;;;;;;;5.60;2.83;;;;;;;;;;4980569;28;20130;-66
2023/03/21 12:15:55;;;;;;;7.50;3.60;;;;;;;;;;5007227;28;20921;-65
2023/03/21 12:18:34;;;;;;;8.23;3.25;;;;;;;;;;5009154;28;20383;-65
2023/03/21 12:21:15;;;;;;;9.20;2.55;;;;;;;;;;4977173;28;20054;-66
2023/03/21 12:24:08;;;;;;;7.00;2.80;;;;;;;;;;4993819;28;20584;-65
2023/03/21 12:26:54;;;;;;;7.88;2.33;;;;;;;;;;4973945;28;20057;-68
2023/03/21 12:29:35;;;;;;;4.40;2.20;;;;;;;;;;5002434;28;20050;-68
2023/03/21 12:32:08;;;;;;;7.50;2.00;;;;;;;;;;4989539;28;20058;-65
2023/03/21 12:35:22;;;;;;;7.70;2.05;;;;;;;;;;4989528;28;20046;-66
2023/03/21 12:38:01;;;;;;;6.45;2.08;;;;;;;;;;4961032;28;20056;-66
2023/03/21 12:40:43;;;;;;;7.57;1.92;;;;;;;;;;4931625;29;20078;-65
2023/03/21 12:43:31;;;;;;;7.22;2.17;;;;;;;;;;4884747;29;20052;-66
2023/03/21 12:46:08;;;;;;;4.68;1.35;;;;;;;;;;4947595;29;20067;-66
2023/03/21 12:48:51;;;;;;;3.35;1.38;;;;;;;;;;4934554;29;20071;-65
2023/03/21 12:51:28;;;;;;;4.65;1.55;;;;;;;;;;4932316;29;20476;-66
2023/03/21 12:54:00;;;;;;;2.55;1.30;;;;;;;;;;4935534;29;20096;-65
2023/03/21 12:56:36;;;;;;;4.45;1.40;;;;;;;;;;4935646;29;20104;-65
2023/03/21 12:59:22;;;;;;;4.45;1.55;;;;;;;;;;4935246;29;20052;-68
2023/03/21 13:01:57;;;;;;;3.47;1.48;;;;;;;;;;4878937;29;20147;-65
2023/03/21 13:04:58;;;;;;;2.83;1.45;;;;;;;;;;4889457;29;20064;-65
2023/03/21 13:07:38;;;;;;;7.43;1.85;;;;;;;;;;4897617;29;20056;-68
2023/03/21 13:10:23;;;;;;;2.92;1.58;;;;;;;;;;4910099;29;20072;-67
2023/03/21 13:13:12;;;;;;;3.97;1.70;;;;;;;;;;4949063;29;20062;-66
2023/03/21 13:15:51;;;;;;;3.53;1.60;;;;;;;;;;4986754;28;20076;-67
2023/03/21 13:18:35;;;;;;;7.00;1.73;;;;;;;;;;4992819;28;20065;-67
2023/03/21 13:21:13;;;;;;;4.82;1.48;;;;;;;;;;4993031;28;20066;-67
2023/03/21 13:24:20;;;;;;;3.13;1.80;;;;;;;;;;4993068;28;20054;-67
2023/03/21 13:27:16;;;;;;;4.28;2.47;;;;;;;;;;5009858;28;20572;-67
2023/03/21 13:29:51;;;;;;;6.22;1.40;;;;;;;;;;4954229;29;20534;-66
2023/03/21 13:32:39;;;;;;;6.07;1.50;;;;;;;;;;4953803;29;20062;-66
2023/03/21 13:35:12;;;;;;;5.90;1.52;;;;;;;;;;4954341;29;20059;-66
2023/03/21 13:37:51;;;;;;;3.78;1.65;;;;;;;;;;4939479;29;20048;-66
2023/03/21 13:40:27;;;;;;;5.38;1.65;;;;;;;;;;4935001;29;20082;-65
2023/03/21 13:42:59;;;;;;;3.88;1.70;;;;;;;;;;4935615;29;20059;-68
2023/03/21 13:45:54;;;;;;;4.15;1.35;;;;;;;;;;4954090;29;20058;-67
2023/03/21 13:48:40;;;;;;;3.53;1.48;;;;;;;;;;4872271;29;20090;-66
2023/03/21 13:51:36;;;;;;;6.82;1.90;;;;;;;;;;4917788;29;20051;-67
2023/03/21 13:54:06;;;;;;;9.48;2.65;;;;;;;;;;4922887;29;20527;-66
2023/03/21 13:56:45;;;;;;;3.92;1.73;;;;;;;;;;4909934;29;20060;-66
2023/03/21 13:59:39;;;;;;;4.43;1.52;;;;;;;;;;4914641;29;20528;-67
2023/03/21 14:02:32;;;;;;;4.35;1.70;;;;;;;;;;4875951;29;20052;-66
2023/03/21 14:05:16;;;;;;;7.22;1.70;;;;;;;;;;4914436;29;20064;-66
2023/03/21 14:07:47;;;;;;;;;;;;;;;;;;4906341;29;20052;-66
2023/03/21 14:10:27;;;;;;;6.55;1.40;;;;;;;;;;4927334;29;19929;-67
2023/03/21 14:12:58;;;;;;;4.93;1.60;;;;;;;;;;4934344;29;20487;-67
2023/03/21 14:15:42;;;;;;;5.05;2.25;;;;;;;;;;4918925;29;20055;-67
2023/03/21 14:18:26;;;;;;;6.43;2.03;;;;;;;;;;4929957;29;20068;-66
2023/03/21 14:21:22;;;;;;;4.47;1.40;;;;;;;;;;4931282;29;20087;-66
2023/03/21 14:23:58;;;;;;;5.10;1.90;;;;;;;;;;4931118;29;20059;-67
2023/03/21 14:26:39;;;;;;;15.43;4.70;;;;;;;;;;4986533;28;20058;-67
2023/03/21 14:29:19;;;;;;;20.52;6.38;;;;;;;;;;4983727;28;20065;-66
2023/03/21 14:31:58;;;;;;;6.70;2.17;;;;;;;;;;4995869;28;20062;-66
2023/03/21 14:34:32;;;;;;;7.10;1.90;;;;;;;;;;4958177;28;20054;-68
2023/03/21 14:37:07;;;;;;;4.03;1.55;;;;;;;;;;4975461;28;20546;-67
2023/03/21 14:39:37;;;;;;;3.95;1.33;;;;;;;;;;4991250;28;20054;-67
2023/03/21 14:42:14;;;;;;;5.00;1.30;;;;;;;;;;4991242;28;20069;-68
2023/03/21 14:44:50;;;;;;;4.97;1.48;;;;;;;;;;4981182;28;20052;-66
2023/03/21 14:47:28;;;;;;;2.58;1.20;;;;;;;;;;4958937;28;20050;-66
2023/03/21 14:50:00;;;;;;;6.68;1.50;;;;;;;;;;4987314;28;20042;-67
2023/03/21 14:52:34;;;;;;;2.35;1.15;;;;;;;;;;4987367;28;20158;-66
2023/03/21 14:55:16;;;;;;;7.22;1.20;;;;;;;;;;4938473;28;20039;-69
2023/03/21 14:57:46;;;;;;;1.80;1.27;;;;;;;;;;4951265;28;20062;-66
2023/03/21 15:00:28;;;;;;;4.72;1.73;;;;;;;;;;4932863;29;20408;-67
2023/03/21 15:02:59;;;;;;;3.22;1.40;;;;;;;;;;4933071;29;20397;-66
2023/03/21 15:05:35;;;;;;;2.53;1.40;;;;;;;;;;4932921;29;20064;-67
2023/03/21 15:08:14;;;;;;;2.70;1.40;;;;;;;;;;4932832;29;20590;-68
2023/03/21 15:11:07;;;;;;;2.40;1.15;;;;;;;;;;4932879;29;20566;-67
2023/03/21 15:13:53;;;;;;;2.63;1.08;;;;;;;;;;4914083;29;20060;-65
2023/03/21 15:16:23;;;;;;;3.50;1.20;;;;;;;;;;4934622;29;20861;-65
2023/03/21 15:18:54;;;;;;;5.07;1.73;;;;;;;;;;4898647;29;20071;-65
2023/03/21 15:21:30;;;;;;;3.67;1.20;;;;;;;;;;4936422;28;20092;-66
2023/03/21 15:24:15;;;;;;;4.28;1.50;;;;;;;;;;4930549;29;20043;-66
2023/03/21 15:26:48;;;;;;;3.42;1.50;;;;;;;;;;4929364;29;20218;-66
2023/03/21 15:29:18;;;;;;;4.53;1.33;;;;;;;;;;4916654;29;20439;-67
2023/03/21 15:31:48;;;;;;;4.70;1.23;;;;;;;;;;4932820;29;20067;-71
2023/03/21 15:34:29;;;;;;;3.88;1.35;;;;;;;;;;4932645;29;20527;-66
2023/03/21 15:37:13;;;;;;;2.65;1.27;;;;;;;;;;4900087;28;20049;-66
2023/03/21 15:39:44;;;;;;;2.78;1.40;;;;;;;;;;4951378;28;20503;-66
2023/03/21 15:42:33;;;;;;;2.88;1.45;;;;;;;;;;4951553;28;20063;-66
2023/03/21 15:45:23;;;;;;;5.78;1.58;;;;;;;;;;4951801;28;20055;-65
2023/03/21 15:48:00;;;;;;;4.82;1.10;;;;;;;;;;4937928;28;20051;-66